Time;durP1;ratioP1;P1;durP2;ratioP2;P2;SDS_P1;SDS_P2;PMS_P1;PMS_P2;Temp;Humidity;BMP_temperature;BMP_pressure;BME280_temperature;BME280_humidity;BME280_pressure;Samples;Min_cycle;Max_cycle;Signal;HPM_P1;HPM_P2
2022/04/01 05:42:32;;;;;;;22.95;6.13;;;;;;;;;;5034595;23;20051;-69
2022/04/01 05:44:59;;;;;;;20.48;5.70;;;;;;;;;;4974200;28;20039;-62
2022/04/01 05:47:26;;;;;;;18.25;5.53;;;;;;;;;;4973840;28;20059;-62
2022/04/01 05:49:55;;;;;;;17.60;5.18;;;;;;;;;;4974343;28;20602;-62
2022/04/01 05:52:22;;;;;;;21.08;5.55;;;;;;;;;;4973687;28;20478;-62
2022/04/01 05:54:49;;;;;;;18.95;5.18;;;;;;;;;;4974000;28;20054;-67
2022/04/01 05:57:17;;;;;;;26.80;6.55;;;;;;;;;;4973789;28;20049;-63
2022/04/01 05:59:44;;;;;;;25.08;5.82;;;;;;;;;;4972969;28;20514;-63
2022/04/01 06:02:13;;;;;;;26.75;6.70;;;;;;;;;;4973638;28;20027;-61
2022/04/01 06:04:51;;;;;;;30.05;6.18;;;;;;;;;;4973915;28;20027;-62
2022/04/01 06:07:20;;;;;;;26.20;6.50;;;;;;;;;;4973665;28;20027;-63
2022/04/01 06:09:59;;;;;;;24.73;6.80;;;;;;;;;;4955577;28;20043;-65
2022/04/01 06:12:31;;;;;;;30.77;6.72;;;;;;;;;;4973577;28;20023;-63
2022/04/01 06:15:00;;;;;;;26.60;7.25;;;;;;;;;;4973768;28;20030;-62
2022/04/01 06:17:32;;;;;;;27.25;7.20;;;;;;;;;;4973958;28;20097;-63
2022/04/01 06:20:03;;;;;;;29.80;7.05;;;;;;;;;;4973700;28;20039;-63
2022/04/01 06:22:33;;;;;;;27.10;6.60;;;;;;;;;;4973567;28;20023;-67
2022/04/01 06:25:12;;;;;;;25.65;7.07;;;;;;;;;;4973443;28;20042;-71
2022/04/01 06:27:40;;;;;;;30.27;7.22;;;;;;;;;;4973524;28;20019;-76
2022/04/01 06:30:07;;;;;;;32.75;8.95;;;;;;;;;;4973394;28;20035;-70
2022/04/01 06:32:53;;;;;;;28.45;6.70;;;;;;;;;;4973869;28;20086;-64
2022/04/01 06:35:30;;;;;;;36.75;6.97;;;;;;;;;;4905933;29;20088;-69
2022/04/01 06:37:56;;;;;;;32.20;7.43;;;;;;;;;;4913301;29;20036;-62
2022/04/01 06:40:23;;;;;;;31.60;6.43;;;;;;;;;;4912760;29;20087;-67
2022/04/01 06:42:51;;;;;;;30.40;8.25;;;;;;;;;;4913092;29;20056;-68
2022/04/01 06:45:17;;;;;;;32.85;6.80;;;;;;;;;;4912785;29;20060;-69
2022/04/01 06:47:45;;;;;;;28.48;7.15;;;;;;;;;;4912745;29;20088;-63
2022/04/01 06:50:12;;;;;;;37.35;8.48;;;;;;;;;;4913200;29;20035;-70
2022/04/01 06:52:39;;;;;;;30.20;7.03;;;;;;;;;;4912773;29;20040;-64
2022/04/01 06:55:08;;;;;;;33.70;7.57;;;;;;;;;;4913208;29;20039;-64
2022/04/01 06:57:34;;;;;;;35.30;8.05;;;;;;;;;;4913413;29;20036;-69
2022/04/01 07:00:00;;;;;;;34.35;7.68;;;;;;;;;;4912750;29;20048;-65
2022/04/01 07:02:26;;;;;;;32.88;7.65;;;;;;;;;;4913056;29;20040;-62
2022/04/01 07:04:52;;;;;;;34.53;7.55;;;;;;;;;;4912792;29;20036;-71
2022/04/01 07:07:18;;;;;;;34.10;7.38;;;;;;;;;;4912695;29;20040;-62
2022/04/01 07:09:44;;;;;;;40.25;7.80;;;;;;;;;;4896455;29;20054;-63
2022/04/01 07:12:11;;;;;;;34.90;8.02;;;;;;;;;;4923279;29;20040;-65
2022/04/01 07:14:37;;;;;;;34.65;7.60;;;;;;;;;;4953350;29;20023;-65
2022/04/01 07:17:03;;;;;;;30.75;7.20;;;;;;;;;;4952220;29;20071;-70
2022/04/01 07:19:29;;;;;;;34.33;8.00;;;;;;;;;;4953170;29;20046;-62
2022/04/01 07:21:55;;;;;;;38.00;8.88;;;;;;;;;;4952987;29;20118;-65
2022/04/01 07:24:21;;;;;;;42.17;8.70;;;;;;;;;;4952426;29;20031;-72
2022/04/01 07:26:47;;;;;;;34.72;8.18;;;;;;;;;;4952967;29;20041;-69
2022/04/01 07:29:14;;;;;;;32.63;9.05;;;;;;;;;;4949926;29;20031;-65
2022/04/01 07:34:36;;;;;;;34.17;8.75;;;;;;;;;;4952970;29;20046;-70
2022/04/01 07:37:03;;;;;;;38.35;9.95;;;;;;;;;;4952710;29;20059;-64
2022/04/01 07:39:29;;;;;;;38.28;8.80;;;;;;;;;;4952395;29;20509;-67
2022/04/01 07:41:55;;;;;;;40.88;8.63;;;;;;;;;;4952483;29;20082;-69
2022/04/01 07:44:22;;;;;;;37.88;9.07;;;;;;;;;;4953232;29;20023;-65
2022/04/01 07:46:48;;;;;;;33.00;7.20;;;;;;;;;;4952845;29;20031;-74
2022/04/01 07:49:15;;;;;;;30.73;7.60;;;;;;;;;;4952515;29;20031;-73
2022/04/01 07:51:43;;;;;;;35.67;8.05;;;;;;;;;;4935121;29;20063;-73
2022/04/01 07:54:09;;;;;;;35.00;7.88;;;;;;;;;;4952533;29;20030;-65
2022/04/01 07:56:36;;;;;;;43.75;8.73;;;;;;;;;;4951884;29;20027;-63
2022/04/01 07:59:04;;;;;;;39.53;9.18;;;;;;;;;;4952196;29;20121;-65
2022/04/01 08:01:30;;;;;;;37.00;8.10;;;;;;;;;;4952725;29;20039;-67
2022/04/01 08:03:56;;;;;;;38.33;7.50;;;;;;;;;;4952635;29;20052;-66
2022/04/01 08:06:22;;;;;;;39.15;8.20;;;;;;;;;;4952661;29;20129;-68
2022/04/01 08:08:48;;;;;;;36.15;8.38;;;;;;;;;;4935149;29;20491;-64
2022/04/01 08:11:14;;;;;;;36.47;9.70;;;;;;;;;;4952498;29;20035;-65
2022/04/01 08:13:40;;;;;;;31.27;7.80;;;;;;;;;;4950636;29;20041;-65
2022/04/01 08:16:08;;;;;;;36.28;7.78;;;;;;;;;;4951520;29;20035;-64
2022/04/01 08:18:34;;;;;;;40.78;9.98;;;;;;;;;;4941886;29;20118;-72
2022/04/01 08:21:00;;;;;;;33.90;8.60;;;;;;;;;;4933067;29;20051;-62
2022/04/01 08:23:26;;;;;;;36.13;8.20;;;;;;;;;;4936517;29;20511;-69
2022/04/01 08:25:53;;;;;;;34.30;7.68;;;;;;;;;;4936915;29;20054;-63
2022/04/01 08:28:19;;;;;;;32.70;8.40;;;;;;;;;;4937443;29;20146;-71
2022/04/01 08:30:45;;;;;;;36.33;8.35;;;;;;;;;;4951861;29;20026;-63
2022/04/01 08:33:15;;;;;;;37.58;8.15;;;;;;;;;;4954102;29;20078;-68
2022/04/01 08:35:43;;;;;;;29.00;7.28;;;;;;;;;;4961895;29;20027;-63
2022/04/01 08:38:10;;;;;;;35.67;8.43;;;;;;;;;;4959661;29;20066;-61
2022/04/01 08:40:36;;;;;;;28.25;7.57;;;;;;;;;;4959287;29;20038;-71
2022/04/01 08:43:02;;;;;;;35.10;8.77;;;;;;;;;;4954604;29;20073;-70
2022/04/01 08:45:35;;;;;;;33.90;7.55;;;;;;;;;;4959423;29;20030;-64
2022/04/01 08:48:09;;;;;;;36.92;7.97;;;;;;;;;;4949611;29;20087;-69
2022/04/01 08:50:36;;;;;;;34.40;8.23;;;;;;;;;;4941098;29;20046;-73
2022/04/01 08:53:03;;;;;;;25.00;5.93;;;;;;;;;;4954444;29;20066;-60
2022/04/01 08:55:29;;;;;;;29.85;6.15;;;;;;;;;;4957215;29;20031;-65
2022/04/01 08:57:56;;;;;;;22.05;5.70;;;;;;;;;;4956557;29;20102;-61
2022/04/01 09:00:22;;;;;;;22.63;5.72;;;;;;;;;;4954905;29;20039;-61
2022/04/01 09:02:54;;;;;;;22.95;5.03;;;;;;;;;;4954231;29;20066;-62
2022/04/01 09:05:20;;;;;;;23.23;4.78;;;;;;;;;;4955481;29;20027;-63
2022/04/01 09:07:47;;;;;;;23.00;5.15;;;;;;;;;;4955411;29;20038;-64
2022/04/01 09:10:13;;;;;;;17.05;4.65;;;;;;;;;;4955019;29;20114;-64
2022/04/01 09:12:49;;;;;;;15.40;4.13;;;;;;;;;;4955298;29;20038;-65
2022/04/01 09:15:15;;;;;;;12.93;2.97;;;;;;;;;;4955275;29;20031;-62
2022/04/01 09:17:43;;;;;;;12.30;3.20;;;;;;;;;;4954899;29;20019;-68
2022/04/01 09:20:09;;;;;;;13.85;3.30;;;;;;;;;;4954926;29;20063;-63
2022/04/01 09:22:36;;;;;;;21.30;6.03;;;;;;;;;;4954911;29;20026;-62
2022/04/01 09:25:02;;;;;;;15.15;4.50;;;;;;;;;;4954874;29;20039;-62
2022/04/01 09:27:44;;;;;;;13.52;3.33;;;;;;;;;;4955096;29;20051;-62
2022/04/01 09:30:13;;;;;;;10.93;3.23;;;;;;;;;;4954713;29;20042;-61
2022/04/01 09:32:52;;;;;;;9.57;2.88;;;;;;;;;;4954531;28;20046;-62
2022/04/01 09:35:22;;;;;;;9.35;2.92;;;;;;;;;;4954916;29;20027;-61
2022/04/01 09:37:49;;;;;;;9.63;2.97;;;;;;;;;;4955081;29;20043;-61
2022/04/01 09:40:21;;;;;;;11.57;3.53;;;;;;;;;;4954607;29;20047;-63
2022/04/01 09:42:51;;;;;;;9.20;3.20;;;;;;;;;;4954823;29;20071;-63
2022/04/01 09:45:21;;;;;;;8.55;3.13;;;;;;;;;;4952866;29;20043;-62
2022/04/01 09:47:57;;;;;;;8.68;2.85;;;;;;;;;;4953257;29;20059;-68
2022/04/01 09:50:26;;;;;;;13.27;3.20;;;;;;;;;;4952663;29;20098;-63
2022/04/01 09:52:52;;;;;;;10.93;3.45;;;;;;;;;;4952891;29;20099;-61
2022/04/01 09:55:19;;;;;;;11.68;4.03;;;;;;;;;;4952395;29;20055;-63
2022/04/01 09:57:45;;;;;;;12.77;4.47;;;;;;;;;;4953028;29;20047;-63
2022/04/01 10:00:11;;;;;;;10.77;3.90;;;;;;;;;;4952970;29;20126;-69
2022/04/01 10:02:38;;;;;;;11.50;4.30;;;;;;;;;;4952834;29;20075;-62
2022/04/01 10:05:05;;;;;;;12.73;3.50;;;;;;;;;;4935877;29;20542;-62
2022/04/01 10:07:33;;;;;;;9.30;3.22;;;;;;;;;;4952625;29;20460;-68
2022/04/01 10:10:00;;;;;;;7.95;2.20;;;;;;;;;;4950274;29;20027;-72
2022/04/01 10:12:27;;;;;;;9.85;1.83;;;;;;;;;;4952748;29;20031;-65
2022/04/01 10:14:58;;;;;;;4.85;1.73;;;;;;;;;;4952887;29;20034;-63
2022/04/01 10:17:27;;;;;;;4.53;1.80;;;;;;;;;;4948256;29;20031;-69
2022/04/01 10:19:54;;;;;;;7.15;2.47;;;;;;;;;;4952138;29;21079;-63
2022/04/01 10:22:20;;;;;;;4.80;1.90;;;;;;;;;;4950232;29;20038;-63
2022/04/01 10:24:55;;;;;;;8.57;2.38;;;;;;;;;;4952573;29;20030;-63
2022/04/01 10:27:40;;;;;;;12.52;2.65;;;;;;;;;;4950094;29;20038;-64
2022/04/01 10:30:07;;;;;;;9.00;2.42;;;;;;;;;;4952509;29;20550;-63
2022/04/01 10:32:36;;;;;;;15.50;3.22;;;;;;;;;;4952540;29;20092;-64
2022/04/01 10:35:03;;;;;;;19.50;3.63;;;;;;;;;;4949868;29;20027;-68
2022/04/01 10:37:31;;;;;;;11.38;2.42;;;;;;;;;;4952548;29;20035;-63
2022/04/01 10:39:58;;;;;;;8.52;2.50;;;;;;;;;;4953104;29;20032;-65
2022/04/01 10:42:25;;;;;;;9.20;2.60;;;;;;;;;;4951245;29;20143;-62
2022/04/01 10:44:51;;;;;;;11.57;2.30;;;;;;;;;;4952144;28;20114;-63
2022/04/01 10:47:18;;;;;;;8.98;2.45;;;;;;;;;;4952310;29;20038;-69
2022/04/01 10:52:30;;;;;;;12.32;3.60;;;;;;;;;;4951750;29;20114;-63
2022/04/01 10:55:14;;;;;;;7.85;3.15;;;;;;;;;;4952160;29;20122;-64
2022/04/01 10:57:42;;;;;;;11.65;3.25;;;;;;;;;;4950043;29;20027;-64
2022/04/01 11:00:13;;;;;;;7.82;2.42;;;;;;;;;;4951831;29;20396;-64
2022/04/01 11:02:39;;;;;;;6.72;2.90;;;;;;;;;;4934377;29;20035;-67
2022/04/01 11:05:25;;;;;;;8.07;2.15;;;;;;;;;;4951497;29;20027;-66
2022/04/01 11:08:10;;;;;;;6.15;2.05;;;;;;;;;;4951652;29;20110;-62
2022/04/01 11:10:36;;;;;;;7.03;2.28;;;;;;;;;;4951592;29;20090;-61
2022/04/01 11:13:02;;;;;;;7.07;2.40;;;;;;;;;;4951348;29;20167;-74
2022/04/01 11:15:29;;;;;;;9.65;2.30;;;;;;;;;;4951960;29;20496;-63
2022/04/01 11:17:58;;;;;;;7.22;2.45;;;;;;;;;;4951311;29;20035;-62
2022/04/01 11:20:28;;;;;;;9.52;3.00;;;;;;;;;;4952299;29;20558;-62
2022/04/01 11:22:56;;;;;;;12.35;5.10;;;;;;;;;;4951217;29;20031;-70
2022/04/01 11:25:23;;;;;;;12.48;5.20;;;;;;;;;;4952325;29;20034;-65
2022/04/01 11:27:58;;;;;;;11.50;3.67;;;;;;;;;;4952679;29;20415;-62
2022/04/01 11:30:25;;;;;;;8.38;3.00;;;;;;;;;;4951571;29;20066;-63
2022/04/01 11:32:58;;;;;;;7.05;3.00;;;;;;;;;;4951994;29;20053;-63
2022/04/01 11:35:26;;;;;;;5.72;2.45;;;;;;;;;;4950925;29;20041;-63
2022/04/01 11:37:52;;;;;;;5.65;2.42;;;;;;;;;;4951868;29;20480;-64
2022/04/01 11:40:22;;;;;;;5.90;2.80;;;;;;;;;;4951082;29;20077;-64
2022/04/01 11:43:08;;;;;;;4.80;2.28;;;;;;;;;;4951829;29;20067;-62
2022/04/01 11:45:39;;;;;;;3.17;1.20;;;;;;;;;;4952524;29;20118;-63
2022/04/01 11:48:15;;;;;;;4.38;1.20;;;;;;;;;;4951015;29;20027;-63
2022/04/01 11:50:43;;;;;;;13.90;9.65;;;;;;;;;;4947655;29;20115;-72
2022/04/01 11:53:18;;;;;;;4.57;2.80;;;;;;;;;;4949758;29;20052;-66
2022/04/01 11:55:44;;;;;;;3.97;1.85;;;;;;;;;;4950770;28;20035;-64
2022/04/01 11:58:10;;;;;;;6.50;1.80;;;;;;;;;;4952159;29;20069;-63
2022/04/01 12:00:36;;;;;;;7.30;1.98;;;;;;;;;;4952373;29;20039;-63
2022/04/01 12:03:02;;;;;;;7.32;2.25;;;;;;;;;;4952105;29;20031;-63
2022/04/01 12:05:31;;;;;;;3.28;1.60;;;;;;;;;;4951902;29;20103;-63
2022/04/01 12:10:50;;;;;;;6.45;2.10;;;;;;;;;;4952759;29;20059;-63
2022/04/01 12:13:16;;;;;;;6.38;2.50;;;;;;;;;;4952547;29;20027;-64
2022/04/01 12:15:44;;;;;;;6.97;3.25;;;;;;;;;;4952730;29;20447;-63
2022/04/01 12:18:12;;;;;;;10.57;3.20;;;;;;;;;;4951864;29;20079;-63
2022/04/01 12:20:48;;;;;;;7.97;3.30;;;;;;;;;;4952212;29;20118;-63
2022/04/01 12:23:15;;;;;;;7.70;3.08;;;;;;;;;;4951999;29;20027;-64
2022/04/01 12:25:42;;;;;;;8.05;3.15;;;;;;;;;;4952229;29;20058;-63
2022/04/01 12:28:09;;;;;;;7.13;2.92;;;;;;;;;;4952459;29;20110;-63
2022/04/01 12:30:36;;;;;;;7.43;3.05;;;;;;;;;;4952160;29;20034;-63
2022/04/01 12:33:06;;;;;;;13.50;7.85;;;;;;;;;;4952198;29;20475;-63
2022/04/01 12:35:32;;;;;;;7.22;3.58;;;;;;;;;;4952180;29;20499;-63
2022/04/01 12:38:08;;;;;;;8.13;2.92;;;;;;;;;;4952306;29;20034;-64
2022/04/01 12:40:35;;;;;;;5.35;2.40;;;;;;;;;;4934192;29;20491;-64
2022/04/01 12:43:01;;;;;;;6.90;2.85;;;;;;;;;;4951875;29;20027;-64
2022/04/01 12:45:27;;;;;;;7.20;3.60;;;;;;;;;;4952268;29;20039;-64
2022/04/01 12:47:53;;;;;;;8.32;4.50;;;;;;;;;;4952323;29;20035;-64
2022/04/01 12:50:34;;;;;;;8.25;4.18;;;;;;;;;;4951280;29;20043;-64
2022/04/01 12:53:10;;;;;;;5.70;3.03;;;;;;;;;;4951779;29;20034;-64
2022/04/01 12:55:36;;;;;;;5.97;3.55;;;;;;;;;;4951972;29;20444;-64
2022/04/01 12:58:04;;;;;;;7.65;3.22;;;;;;;;;;4951542;29;20510;-65
2022/04/01 13:00:30;;;;;;;7.68;3.42;;;;;;;;;;4951189;29;20538;-64
2022/04/01 13:03:01;;;;;;;8.60;3.65;;;;;;;;;;4950601;29;20031;-65
2022/04/01 13:05:27;;;;;;;10.27;4.15;;;;;;;;;;4951865;29;20657;-64
2022/04/01 13:07:53;;;;;;;11.35;5.03;;;;;;;;;;4953470;28;20464;-64
2022/04/01 13:10:21;;;;;;;8.65;3.80;;;;;;;;;;4953251;29;20519;-64
2022/04/01 13:12:48;;;;;;;9.02;3.58;;;;;;;;;;4951395;29;20027;-64
2022/04/01 13:15:18;;;;;;;10.40;4.47;;;;;;;;;;4953715;29;20027;-65
2022/04/01 13:17:50;;;;;;;9.35;4.30;;;;;;;;;;4953469;29;20031;-63
2022/04/01 13:20:17;;;;;;;8.50;3.88;;;;;;;;;;4953660;29;20521;-62
2022/04/01 13:22:44;;;;;;;10.32;4.78;;;;;;;;;;4954868;29;20053;-62
2022/04/01 13:25:12;;;;;;;8.15;4.18;;;;;;;;;;4953483;29;20530;-68
2022/04/01 13:27:39;;;;;;;11.05;4.25;;;;;;;;;;4952792;29;20031;-62
2022/04/01 13:30:06;;;;;;;9.05;3.88;;;;;;;;;;4954931;29;20054;-63
2022/04/01 13:32:32;;;;;;;9.43;4.32;;;;;;;;;;4937294;29;20740;-62
2022/04/01 13:34:58;;;;;;;7.75;4.28;;;;;;;;;;4954745;29;20458;-64
2022/04/01 13:37:24;;;;;;;8.00;3.65;;;;;;;;;;4953935;29;20523;-62
2022/04/01 13:39:50;;;;;;;8.80;3.70;;;;;;;;;;4954528;29;20043;-63
2022/04/01 13:42:17;;;;;;;5.95;3.85;;;;;;;;;;4954394;29;20512;-62
2022/04/01 13:44:43;;;;;;;7.13;3.35;;;;;;;;;;4953882;29;20031;-61
2022/04/01 13:47:11;;;;;;;6.00;2.60;;;;;;;;;;4953787;29;20027;-62
2022/04/01 13:49:37;;;;;;;6.95;3.45;;;;;;;;;;4954776;29;20375;-62
2022/04/01 13:52:03;;;;;;;6.97;3.00;;;;;;;;;;4953782;29;20031;-64
2022/04/01 13:54:29;;;;;;;7.25;3.00;;;;;;;;;;4953717;29;20066;-63
2022/04/01 13:56:56;;;;;;;16.52;10.23;;;;;;;;;;4936483;29;20432;-63
2022/04/01 13:59:22;;;;;;;7.47;4.00;;;;;;;;;;4952648;29;20043;-64
2022/04/01 14:01:48;;;;;;;7.88;3.92;;;;;;;;;;4952333;29;20039;-63
2022/04/01 14:04:15;;;;;;;5.20;3.03;;;;;;;;;;4953092;29;20042;-62
2022/04/01 14:06:41;;;;;;;4.65;2.47;;;;;;;;;;4953611;29;20038;-62
2022/04/01 14:09:08;;;;;;;4.70;2.58;;;;;;;;;;4952676;29;20443;-62
2022/04/01 14:11:35;;;;;;;5.38;1.85;;;;;;;;;;4953647;29;20035;-62
2022/04/01 14:14:02;;;;;;;5.30;1.80;;;;;;;;;;4953997;29;20024;-62
2022/04/01 14:16:28;;;;;;;4.10;2.30;;;;;;;;;;4954268;29;20094;-62
2022/04/01 14:18:54;;;;;;;4.93;2.50;;;;;;;;;;4953196;28;20074;-62
2022/04/01 14:21:21;;;;;;;4.70;2.55;;;;;;;;;;4954135;29;20546;-62
2022/04/01 14:23:47;;;;;;;4.80;3.10;;;;;;;;;;4954260;29;20049;-62
2022/04/01 14:26:13;;;;;;;6.80;3.85;;;;;;;;;;4953854;29;20039;-62
2022/04/01 14:28:40;;;;;;;6.68;3.35;;;;;;;;;;4953813;29;20122;-62
2022/04/01 14:31:07;;;;;;;7.88;3.35;;;;;;;;;;4953721;29;20049;-62
2022/04/01 14:33:34;;;;;;;9.43;4.50;;;;;;;;;;4954250;29;20507;-62
2022/04/01 14:36:01;;;;;;;8.77;4.00;;;;;;;;;;4954122;29;20035;-62
2022/04/01 14:38:27;;;;;;;11.05;5.10;;;;;;;;;;4953858;29;20031;-61
2022/04/01 14:40:54;;;;;;;8.55;5.20;;;;;;;;;;4953229;29;20055;-61
2022/04/01 14:43:20;;;;;;;8.18;4.32;;;;;;;;;;4953501;29;20439;-61
2022/04/01 14:45:46;;;;;;;7.30;3.80;;;;;;;;;;4953876;29;20031;-61
2022/04/01 14:48:13;;;;;;;8.45;4.65;;;;;;;;;;4953834;29;20073;-61
2022/04/01 14:50:39;;;;;;;9.43;4.55;;;;;;;;;;4953414;29;20034;-61
2022/04/01 14:53:06;;;;;;;7.15;4.40;;;;;;;;;;4953624;29;20019;-60
2022/04/01 14:55:32;;;;;;;8.50;4.72;;;;;;;;;;4953547;29;20498;-61
2022/04/01 14:57:58;;;;;;;7.03;3.92;;;;;;;;;;4953305;29;20035;-60
2022/04/01 15:00:24;;;;;;;8.55;3.92;;;;;;;;;;4952939;29;20122;-62
2022/04/01 15:02:50;;;;;;;6.68;3.38;;;;;;;;;;4953254;29;20399;-61
2022/04/01 15:05:16;;;;;;;8.88;3.80;;;;;;;;;;4952952;29;20071;-60
2022/04/01 15:07:47;;;;;;;10.18;3.45;;;;;;;;;;4952952;29;20086;-62
2022/04/01 15:10:15;;;;;;;7.78;3.75;;;;;;;;;;4952839;29;20037;-62
2022/04/01 15:12:41;;;;;;;7.53;2.83;;;;;;;;;;4952869;29;20118;-61
2022/04/01 15:15:08;;;;;;;7.25;2.40;;;;;;;;;;4953136;29;20357;-63
2022/04/01 15:17:36;;;;;;;9.80;2.42;;;;;;;;;;4951382;29;20037;-63
2022/04/01 15:20:03;;;;;;;4.60;2.03;;;;;;;;;;4950961;29;20063;-61
2022/04/01 15:22:29;;;;;;;6.80;1.83;;;;;;;;;;4951372;29;20054;-62
2022/04/01 15:24:56;;;;;;;5.60;1.88;;;;;;;;;;4952775;29;20245;-62
2022/04/01 15:27:22;;;;;;;6.05;1.90;;;;;;;;;;4952080;29;20383;-61
2022/04/01 15:29:49;;;;;;;7.88;1.83;;;;;;;;;;4950852;28;20047;-61
2022/04/01 15:32:15;;;;;;;8.10;3.00;;;;;;;;;;4950002;29;20042;-61
2022/04/01 15:34:41;;;;;;;5.03;1.90;;;;;;;;;;4952365;29;20543;-61
2022/04/01 15:37:13;;;;;;;7.05;2.75;;;;;;;;;;4952283;29;20114;-63
2022/04/01 15:39:39;;;;;;;6.55;2.83;;;;;;;;;;4946366;29;20118;-60
2022/04/01 15:42:07;;;;;;;9.48;3.22;;;;;;;;;;4949226;29;20068;-62
2022/04/01 15:44:34;;;;;;;10.45;3.20;;;;;;;;;;4949063;29;20027;-62
2022/04/01 15:47:02;;;;;;;6.93;2.40;;;;;;;;;;4947466;29;20057;-62
2022/04/01 15:49:30;;;;;;;5.18;2.40;;;;;;;;;;4952534;29;20118;-61
2022/04/01 15:51:56;;;;;;;19.02;4.90;;;;;;;;;;4951382;29;20424;-61
2022/04/01 15:54:24;;;;;;;13.85;5.35;;;;;;;;;;4947854;29;20425;-61
2022/04/01 15:56:52;;;;;;;12.98;5.03;;;;;;;;;;4949443;29;20476;-61
2022/04/01 15:59:18;;;;;;;21.42;7.57;;;;;;;;;;4948667;29;20418;-61
2022/04/01 16:01:45;;;;;;;18.17;7.63;;;;;;;;;;4951859;29;20054;-62
2022/04/01 16:04:30;;;;;;;20.83;8.93;;;;;;;;;;4950483;29;20432;-61
2022/04/01 16:06:56;;;;;;;21.10;8.35;;;;;;;;;;4947894;29;20110;-61
2022/04/01 16:09:27;;;;;;;9.57;4.72;;;;;;;;;;4950834;29;20035;-62
2022/04/01 16:11:54;;;;;;;9.43;2.80;;;;;;;;;;4949310;29;20082;-61
2022/04/01 16:14:21;;;;;;;5.43;2.40;;;;;;;;;;4950409;29;20049;-61
2022/04/01 16:16:48;;;;;;;10.77;3.58;;;;;;;;;;4950580;29;20462;-61
2022/04/01 16:19:14;;;;;;;9.65;3.90;;;;;;;;;;4945099;29;20048;-61
2022/04/01 16:21:41;;;;;;;12.00;4.53;;;;;;;;;;4915595;29;20032;-61
2022/04/01 16:24:07;;;;;;;12.25;5.30;;;;;;;;;;4933008;29;20039;-61
2022/04/01 16:26:33;;;;;;;14.00;5.00;;;;;;;;;;4948495;29;20122;-60
2022/04/01 16:28:59;;;;;;;11.98;5.07;;;;;;;;;;4951148;29;20046;-61
2022/04/01 16:31:25;;;;;;;13.07;5.72;;;;;;;;;;4950221;29;20035;-62
2022/04/01 16:33:51;;;;;;;8.45;3.88;;;;;;;;;;4933002;29;20118;-60
2022/04/01 16:36:17;;;;;;;9.52;3.45;;;;;;;;;;4947596;29;20082;-61
2022/04/01 16:38:44;;;;;;;8.85;3.30;;;;;;;;;;4951025;29;20122;-62
2022/04/01 16:41:10;;;;;;;16.60;8.82;;;;;;;;;;4944663;29;20087;-61
2022/04/01 16:43:36;;;;;;;21.75;8.43;;;;;;;;;;4935646;29;20039;-62
2022/04/01 16:46:02;;;;;;;20.42;9.10;;;;;;;;;;4936128;29;20031;-61
2022/04/01 16:48:28;;;;;;;11.27;5.40;;;;;;;;;;4936126;29;20031;-62
2022/04/01 16:50:58;;;;;;;12.45;6.78;;;;;;;;;;4936304;29;20035;-64
2022/04/01 16:53:25;;;;;;;18.55;7.63;;;;;;;;;;4921330;29;20035;-62
2022/04/01 16:55:51;;;;;;;14.98;8.13;;;;;;;;;;4936019;29;20038;-62
2022/04/01 16:58:17;;;;;;;15.55;8.93;;;;;;;;;;4936397;29;20164;-61
2022/04/01 17:00:43;;;;;;;22.15;11.52;;;;;;;;;;4936082;29;20039;-61
2022/04/01 17:03:09;;;;;;;27.55;14.95;;;;;;;;;;4936062;29;20058;-60
2022/04/01 17:12:31;;;;;;;34.42;15.65;;;;;;;;;;4935686;29;20089;-61
2022/04/01 17:13:51;;;;;;;29.60;16.02;;;;;;;;;;4935664;29;20043;-62
2022/04/01 17:16:18;;;;;;;28.33;16.65;;;;;;;;;;4930332;29;20036;-62
2022/04/01 17:18:45;;;;;;;30.42;16.02;;;;;;;;;;4924966;29;20034;-62
2022/04/01 17:21:11;;;;;;;23.17;11.90;;;;;;;;;;4925144;29;20032;-61
2022/04/01 17:23:38;;;;;;;29.83;16.33;;;;;;;;;;4924965;29;20055;-62
2022/04/01 17:26:04;;;;;;;24.83;13.55;;;;;;;;;;4935795;29;20075;-63
2022/04/01 17:28:30;;;;;;;31.45;17.60;;;;;;;;;;4934909;29;20040;-61
2022/04/01 17:30:58;;;;;;;20.38;11.73;;;;;;;;;;4934409;29;20036;-63
2022/04/01 17:33:25;;;;;;;27.00;13.70;;;;;;;;;;4934812;29;20039;-63
2022/04/01 17:35:51;;;;;;;35.75;18.02;;;;;;;;;;4933838;29;20031;-62
2022/04/01 17:38:18;;;;;;;42.92;23.63;;;;;;;;;;4934097;29;20054;-60
2022/04/01 17:40:45;;;;;;;41.42;23.10;;;;;;;;;;4916398;29;20044;-62
2022/04/01 17:43:11;;;;;;;31.40;18.58;;;;;;;;;;4934271;29;20535;-63
2022/04/01 17:45:39;;;;;;;30.85;16.92;;;;;;;;;;4933951;29;20475;-60
2022/04/01 17:48:06;;;;;;;32.83;18.10;;;;;;;;;;4933877;29;20031;-63
2022/04/01 17:50:34;;;;;;;42.45;24.85;;;;;;;;;;4934076;29;20736;-60
2022/04/01 17:53:01;;;;;;;24.38;13.30;;;;;;;;;;4930932;29;20519;-61
2022/04/01 17:55:27;;;;;;;8.73;4.10;;;;;;;;;;4934594;29;20425;-60
2022/04/01 17:57:55;;;;;;;10.23;5.50;;;;;;;;;;4934400;29;20102;-61
2022/04/01 18:00:21;;;;;;;13.32;6.43;;;;;;;;;;4933941;29;20634;-61
2022/04/01 18:02:49;;;;;;;10.70;4.82;;;;;;;;;;4934834;29;20060;-60
2022/04/01 18:05:15;;;;;;;10.02;5.88;;;;;;;;;;4934787;29;20050;-61
2022/04/01 18:07:48;;;;;;;9.93;5.25;;;;;;;;;;4917159;29;20131;-59
2022/04/01 18:10:15;;;;;;;5.55;3.17;;;;;;;;;;4932167;29;20384;-59
2022/04/01 18:12:41;;;;;;;8.35;3.95;;;;;;;;;;4924072;29;20055;-61
2022/04/01 18:15:08;;;;;;;5.13;2.80;;;;;;;;;;4922671;29;20384;-60
2022/04/01 18:17:35;;;;;;;8.57;3.17;;;;;;;;;;4923477;29;20028;-61
2022/04/01 18:20:03;;;;;;;6.15;3.05;;;;;;;;;;4922480;29;20040;-60
2022/04/01 18:22:29;;;;;;;6.15;3.40;;;;;;;;;;4922714;29;20488;-60
2022/04/01 18:25:10;;;;;;;8.43;3.95;;;;;;;;;;4924117;29;20118;-60
2022/04/01 18:27:36;;;;;;;9.15;4.57;;;;;;;;;;4923468;29;20429;-60
2022/04/01 18:30:03;;;;;;;6.72;3.30;;;;;;;;;;4922306;29;20366;-60
2022/04/01 18:32:39;;;;;;;11.13;5.93;;;;;;;;;;4932182;29;20095;-60
2022/04/01 18:35:12;;;;;;;7.43;4.18;;;;;;;;;;4933872;29;20027;-61
2022/04/01 18:37:38;;;;;;;7.10;4.25;;;;;;;;;;4934104;29;20032;-61
2022/04/01 18:40:15;;;;;;;7.43;5.20;;;;;;;;;;4933768;29;20063;-61
2022/04/01 18:42:45;;;;;;;12.45;6.93;;;;;;;;;;4933391;29;20043;-61
2022/04/01 18:45:11;;;;;;;19.85;10.68;;;;;;;;;;4933810;29;20028;-61
2022/04/01 18:47:38;;;;;;;8.32;5.57;;;;;;;;;;4933741;29;20079;-59
2022/04/01 18:50:22;;;;;;;9.57;5.70;;;;;;;;;;4933709;29;20038;-61
2022/04/01 18:55:34;;;;;;;27.33;12.50;;;;;;;;;;4934141;29;20443;-61
2022/04/01 18:58:01;;;;;;;12.02;6.85;;;;;;;;;;4933876;29;20043;-63
2022/04/01 19:00:27;;;;;;;17.75;7.85;;;;;;;;;;4933511;29;20043;-62
2022/04/01 19:03:17;;;;;;;10.23;6.57;;;;;;;;;;4932947;29;20032;-59
2022/04/01 19:05:56;;;;;;;15.48;9.27;;;;;;;;;;4933425;29;20047;-62
2022/04/01 19:08:43;;;;;;;8.00;5.40;;;;;;;;;;4934093;29;20032;-62
2022/04/01 19:11:15;;;;;;;12.90;6.88;;;;;;;;;;4933576;29;20031;-61
2022/04/01 19:13:59;;;;;;;11.20;6.93;;;;;;;;;;4933443;29;20066;-59
2022/04/01 19:16:27;;;;;;;16.08;8.82;;;;;;;;;;4933340;29;20032;-61
2022/04/01 19:19:03;;;;;;;19.13;8.55;;;;;;;;;;4933301;29;20365;-63
2022/04/01 19:21:38;;;;;;;14.38;7.22;;;;;;;;;;4932822;29;20205;-61
2022/04/01 19:24:23;;;;;;;15.80;6.57;;;;;;;;;;4927185;29;20028;-62
2022/04/01 19:26:56;;;;;;;14.40;6.63;;;;;;;;;;4923464;29;20388;-60
2022/04/01 19:29:31;;;;;;;15.82;7.53;;;;;;;;;;4904864;29;20024;-60
2022/04/01 19:32:31;;;;;;;10.85;6.72;;;;;;;;;;4925720;29;20032;-61
2022/04/01 19:43:33;;;;;;;10.88;6.20;;;;;;;;;;4932960;29;20102;-61
2022/04/01 19:46:27;;;;;;;13.57;7.60;;;;;;;;;;4932782;29;20019;-62
2022/04/01 19:48:59;;;;;;;12.45;7.10;;;;;;;;;;4933001;29;20046;-61
2022/04/01 19:51:25;;;;;;;12.63;8.13;;;;;;;;;;4933100;29;20031;-60
2022/04/01 19:53:57;;;;;;;13.20;8.07;;;;;;;;;;4932884;29;20036;-61
2022/04/01 19:56:26;;;;;;;15.77;9.38;;;;;;;;;;4933159;29;20036;-62
2022/04/01 20:02:20;;;;;;;13.80;7.82;;;;;;;;;;4933080;29;20074;-66
2022/04/01 20:05:20;;;;;;;11.48;7.78;;;;;;;;;;4941333;29;20027;-64
2022/04/01 20:07:58;;;;;;;11.25;7.68;;;;;;;;;;4943546;29;20039;-60
2022/04/01 20:10:45;;;;;;;12.48;8.05;;;;;;;;;;4945553;29;20107;-60
2022/04/01 20:13:32;;;;;;;10.68;7.20;;;;;;;;;;4941315;29;20028;-60
2022/04/01 20:16:07;;;;;;;11.43;6.97;;;;;;;;;;4949759;29;20712;-61
2022/04/01 20:18:33;;;;;;;12.73;8.00;;;;;;;;;;4950999;29;20106;-62
2022/04/01 20:21:18;;;;;;;10.48;6.90;;;;;;;;;;4954467;29;20097;-66
2022/04/01 20:24:02;;;;;;;14.18;7.40;;;;;;;;;;4956031;29;20089;-60
2022/04/01 20:32:29;;;;;;;10.65;7.13;;;;;;;;;;4955510;29;20046;-60
2022/04/01 20:34:57;;;;;;;12.13;8.05;;;;;;;;;;4955810;29;20027;-63
2022/04/01 20:37:27;;;;;;;13.88;8.05;;;;;;;;;;4955563;29;20035;-60
2022/04/01 20:40:12;;;;;;;65.55;34.72;;;;;;;;;;4955502;29;20071;-60
2022/04/01 20:42:59;;;;;;;63.25;32.38;;;;;;;;;;4955040;29;20777;-60
2022/04/01 20:45:28;;;;;;;17.23;11.57;;;;;;;;;;4954911;29;20051;-61
2022/04/01 20:47:57;;;;;;;22.45;12.25;;;;;;;;;;4954851;29;20118;-61
2022/04/01 20:54:04;;;;;;;18.38;12.82;;;;;;;;;;4940145;29;20045;-62
2022/04/01 20:56:54;;;;;;;19.45;13.52;;;;;;;;;;4952489;29;20039;-60
2022/04/01 20:59:44;;;;;;;38.83;24.20;;;;;;;;;;4951446;28;21930;-62
2022/04/01 21:02:22;;;;;;;38.55;23.73;;;;;;;;;;4952631;29;20090;-63
2022/04/01 21:05:07;;;;;;;24.17;16.00;;;;;;;;;;4951645;29;20110;-62